sensor_id;sensor_type;location;lat;lon;timestamp;P1;durP1;ratioP1;P2;durP2;ratioP2
22768;SDS011;13001;51.968;5.918;2024-03-08T00:02:12;38.33;;;19.23;;
22768;SDS011;13001;51.968;5.918;2024-03-08T00:04:40;39.67;;;20.03;;
22768;SDS011;13001;51.968;5.918;2024-03-08T00:07:08;39.57;;;19.93;;
22768;SDS011;13001;51.968;5.918;2024-03-08T00:09:35;36.93;;;20.30;;
22768;SDS011;13001;51.968;5.918;2024-03-08T00:12:05;32.97;;;18.43;;
22768;SDS011;13001;51.968;5.918;2024-03-08T00:14:32;37.20;;;19.73;;
22768;SDS011;13001;51.968;5.918;2024-03-08T00:17:00;37.60;;;20.23;;
22768;SDS011;13001;51.968;5.918;2024-03-08T00:19:32;37.07;;;20.20;;
22768;SDS011;13001;51.968;5.918;2024-03-08T00:21:59;38.90;;;20.70;;
22768;SDS011;13001;51.968;5.918;2024-03-08T00:24:27;38.17;;;19.50;;
22768;SDS011;13001;51.968;5.918;2024-03-08T00:26:54;38.93;;;20.00;;
22768;SDS011;13001;51.968;5.918;2024-03-08T00:29:23;38.47;;;20.20;;
22768;SDS011;13001;51.968;5.918;2024-03-08T00:31:51;34.23;;;19.43;;
22768;SDS011;13001;51.968;5.918;2024-03-08T00:34:18;38.70;;;19.77;;
22768;SDS011;13001;51.968;5.918;2024-03-08T00:36:47;35.23;;;18.07;;
22768;SDS011;13001;51.968;5.918;2024-03-08T00:39:15;36.73;;;19.93;;
22768;SDS011;13001;51.968;5.918;2024-03-08T00:41:42;33.20;;;19.57;;
22768;SDS011;13001;51.968;5.918;2024-03-08T00:44:10;41.87;;;20.27;;
22768;SDS011;13001;51.968;5.918;2024-03-08T00:46:38;35.07;;;20.10;;
22768;SDS011;13001;51.968;5.918;2024-03-08T00:49:05;34.47;;;20.07;;
22768;SDS011;13001;51.968;5.918;2024-03-08T00:51:33;37.50;;;21.02;;
22768;SDS011;13001;51.968;5.918;2024-03-08T00:54:03;40.10;;;22.17;;
22768;SDS011;13001;51.968;5.918;2024-03-08T00:56:30;37.67;;;22.60;;
22768;SDS011;13001;51.968;5.918;2024-03-08T00:58:59;37.95;;;21.82;;
22768;SDS011;13001;51.968;5.918;2024-03-08T01:01:28;36.28;;;21.97;;
22768;SDS011;13001;51.968;5.918;2024-03-08T01:03:56;36.85;;;20.95;;
22768;SDS011;13001;51.968;5.918;2024-03-08T01:06:25;35.38;;;22.05;;
22768;SDS011;13001;51.968;5.918;2024-03-08T01:08:54;41.18;;;22.27;;
22768;SDS011;13001;51.968;5.918;2024-03-08T01:11:21;38.55;;;21.93;;
22768;SDS011;13001;51.968;5.918;2024-03-08T01:13:50;32.67;;;21.27;;
22768;SDS011;13001;51.968;5.918;2024-03-08T01:16:19;35.68;;;21.30;;
22768;SDS011;13001;51.968;5.918;2024-03-08T01:18:47;34.92;;;21.33;;
22768;SDS011;13001;51.968;5.918;2024-03-08T01:21:14;33.78;;;21.23;;
22768;SDS011;13001;51.968;5.918;2024-03-08T01:23:42;33.33;;;20.60;;
22768;SDS011;13001;51.968;5.918;2024-03-08T01:26:09;31.87;;;20.77;;
22768;SDS011;13001;51.968;5.918;2024-03-08T01:28:37;33.30;;;19.57;;
22768;SDS011;13001;51.968;5.918;2024-03-08T01:31:05;35.35;;;20.30;;
22768;SDS011;13001;51.968;5.918;2024-03-08T01:33:33;32.33;;;21.17;;
22768;SDS011;13001;51.968;5.918;2024-03-08T01:36:01;32.08;;;20.05;;
22768;SDS011;13001;51.968;5.918;2024-03-08T01:38:29;31.87;;;20.80;;
22768;SDS011;13001;51.968;5.918;2024-03-08T01:40:56;31.42;;;20.57;;
22768;SDS011;13001;51.968;5.918;2024-03-08T01:43:27;32.13;;;19.95;;
22768;SDS011;13001;51.968;5.918;2024-03-08T01:46:01;34.93;;;20.90;;
22768;SDS011;13001;51.968;5.918;2024-03-08T01:48:28;33.92;;;21.57;;
22768;SDS011;13001;51.968;5.918;2024-03-08T01:50:56;30.88;;;20.27;;
22768;SDS011;13001;51.968;5.918;2024-03-08T01:53:26;32.47;;;20.37;;
22768;SDS011;13001;51.968;5.918;2024-03-08T01:55:56;29.87;;;19.87;;
22768;SDS011;13001;51.968;5.918;2024-03-08T01:58:26;32.15;;;20.25;;
22768;SDS011;13001;51.968;5.918;2024-03-08T02:00:54;33.05;;;20.60;;
22768;SDS011;13001;51.968;5.918;2024-03-08T02:03:34;30.95;;;20.80;;
22768;SDS011;13001;51.968;5.918;2024-03-08T02:06:03;31.48;;;21.07;;
22768;SDS011;13001;51.968;5.918;2024-03-08T02:08:32;31.12;;;20.95;;
22768;SDS011;13001;51.968;5.918;2024-03-08T02:11:00;34.10;;;21.33;;
22768;SDS011;13001;51.968;5.918;2024-03-08T02:13:28;32.63;;;20.70;;
22768;SDS011;13001;51.968;5.918;2024-03-08T02:15:56;35.00;;;21.00;;
22768;SDS011;13001;51.968;5.918;2024-03-08T02:18:28;31.75;;;20.95;;
22768;SDS011;13001;51.968;5.918;2024-03-08T02:20:56;31.27;;;21.33;;
22768;SDS011;13001;51.968;5.918;2024-03-08T02:23:25;31.20;;;20.67;;
22768;SDS011;13001;51.968;5.918;2024-03-08T02:25:54;38.67;;;21.70;;
22768;SDS011;13001;51.968;5.918;2024-03-08T02:28:23;36.28;;;22.20;;
22768;SDS011;13001;51.968;5.918;2024-03-08T02:30:51;32.05;;;21.93;;
22768;SDS011;13001;51.968;5.918;2024-03-08T02:33:22;32.15;;;21.65;;
22768;SDS011;13001;51.968;5.918;2024-03-08T02:35:50;32.88;;;21.30;;
22768;SDS011;13001;51.968;5.918;2024-03-08T02:38:20;32.28;;;21.45;;
22768;SDS011;13001;51.968;5.918;2024-03-08T02:40:50;34.48;;;21.93;;
22768;SDS011;13001;51.968;5.918;2024-03-08T02:43:19;33.45;;;21.77;;
22768;SDS011;13001;51.968;5.918;2024-03-08T02:45:51;36.33;;;21.90;;
22768;SDS011;13001;51.968;5.918;2024-03-08T02:48:21;34.90;;;22.05;;
22768;SDS011;13001;51.968;5.918;2024-03-08T02:50:49;35.65;;;22.17;;
22768;SDS011;13001;51.968;5.918;2024-03-08T02:53:19;33.20;;;22.60;;
22768;SDS011;13001;51.968;5.918;2024-03-08T02:55:48;32.73;;;22.07;;
22768;SDS011;13001;51.968;5.918;2024-03-08T02:58:15;34.35;;;22.45;;
22768;SDS011;13001;51.968;5.918;2024-03-08T03:00:44;36.70;;;22.67;;
22768;SDS011;13001;51.968;5.918;2024-03-08T03:03:11;36.03;;;22.30;;
22768;SDS011;13001;51.968;5.918;2024-03-08T03:05:39;33.92;;;22.80;;
22768;SDS011;13001;51.968;5.918;2024-03-08T03:08:08;32.93;;;22.33;;
22768;SDS011;13001;51.968;5.918;2024-03-08T03:10:37;35.78;;;22.25;;
22768;SDS011;13001;51.968;5.918;2024-03-08T03:13:04;34.55;;;22.52;;
22768;SDS011;13001;51.968;5.918;2024-03-08T03:15:32;34.18;;;22.50;;
22768;SDS011;13001;51.968;5.918;2024-03-08T03:18:02;37.70;;;22.73;;
22768;SDS011;13001;51.968;5.918;2024-03-08T03:20:32;35.35;;;22.40;;
22768;SDS011;13001;51.968;5.918;2024-03-08T03:23:01;32.63;;;22.47;;
22768;SDS011;13001;51.968;5.918;2024-03-08T03:25:29;31.90;;;22.62;;
22768;SDS011;13001;51.968;5.918;2024-03-08T03:27:58;38.02;;;22.87;;
22768;SDS011;13001;51.968;5.918;2024-03-08T03:30:26;37.53;;;24.23;;
22768;SDS011;13001;51.968;5.918;2024-03-08T03:32:55;35.38;;;23.52;;
22768;SDS011;13001;51.968;5.918;2024-03-08T03:35:26;32.17;;;22.90;;
22768;SDS011;13001;51.968;5.918;2024-03-08T03:37:55;34.55;;;22.82;;
22768;SDS011;13001;51.968;5.918;2024-03-08T03:40:39;36.13;;;23.70;;
22768;SDS011;13001;51.968;5.918;2024-03-08T03:43:07;36.40;;;23.17;;
22768;SDS011;13001;51.968;5.918;2024-03-08T03:45:36;35.05;;;23.15;;
22768;SDS011;13001;51.968;5.918;2024-03-08T03:48:07;33.63;;;23.02;;
22768;SDS011;13001;51.968;5.918;2024-03-08T03:50:38;35.50;;;23.57;;
22768;SDS011;13001;51.968;5.918;2024-03-08T03:53:05;36.42;;;23.42;;
22768;SDS011;13001;51.968;5.918;2024-03-08T03:55:33;35.73;;;24.32;;
22768;SDS011;13001;51.968;5.918;2024-03-08T03:58:02;32.70;;;23.20;;
22768;SDS011;13001;51.968;5.918;2024-03-08T04:00:30;35.17;;;23.73;;
22768;SDS011;13001;51.968;5.918;2024-03-08T04:02:58;35.88;;;23.60;;
22768;SDS011;13001;51.968;5.918;2024-03-08T04:05:26;34.92;;;24.15;;
22768;SDS011;13001;51.968;5.918;2024-03-08T04:07:54;35.25;;;24.37;;
22768;SDS011;13001;51.968;5.918;2024-03-08T04:10:22;39.10;;;24.40;;
22768;SDS011;13001;51.968;5.918;2024-03-08T04:12:50;36.35;;;24.00;;
22768;SDS011;13001;51.968;5.918;2024-03-08T04:15:34;36.10;;;23.90;;
22768;SDS011;13001;51.968;5.918;2024-03-08T04:18:03;38.13;;;24.90;;
22768;SDS011;13001;51.968;5.918;2024-03-08T04:20:31;35.48;;;23.95;;
22768;SDS011;13001;51.968;5.918;2024-03-08T04:22:59;36.15;;;23.85;;
22768;SDS011;13001;51.968;5.918;2024-03-08T04:25:28;33.40;;;22.82;;
22768;SDS011;13001;51.968;5.918;2024-03-08T04:27:56;38.45;;;24.27;;
22768;SDS011;13001;51.968;5.918;2024-03-08T04:30:25;35.43;;;24.55;;
22768;SDS011;13001;51.968;5.918;2024-03-08T04:32:54;35.68;;;23.15;;
22768;SDS011;13001;51.968;5.918;2024-03-08T04:35:21;36.25;;;24.40;;
22768;SDS011;13001;51.968;5.918;2024-03-08T04:37:50;33.83;;;23.57;;
22768;SDS011;13001;51.968;5.918;2024-03-08T04:40:17;35.10;;;23.60;;
22768;SDS011;13001;51.968;5.918;2024-03-08T04:42:46;35.43;;;23.92;;
22768;SDS011;13001;51.968;5.918;2024-03-08T04:45:15;31.42;;;23.47;;
22768;SDS011;13001;51.968;5.918;2024-03-08T04:47:43;39.98;;;24.67;;
22768;SDS011;13001;51.968;5.918;2024-03-08T04:50:10;33.90;;;23.60;;
22768;SDS011;13001;51.968;5.918;2024-03-08T04:52:38;37.23;;;24.92;;
22768;SDS011;13001;51.968;5.918;2024-03-08T04:55:05;33.57;;;24.50;;
22768;SDS011;13001;51.968;5.918;2024-03-08T04:57:33;38.25;;;25.23;;
22768;SDS011;13001;51.968;5.918;2024-03-08T05:00:02;37.93;;;24.57;;
22768;SDS011;13001;51.968;5.918;2024-03-08T05:02:31;33.58;;;23.73;;
22768;SDS011;13001;51.968;5.918;2024-03-08T05:04:59;36.15;;;23.80;;
22768;SDS011;13001;51.968;5.918;2024-03-08T05:07:26;35.65;;;24.35;;
22768;SDS011;13001;51.968;5.918;2024-03-08T05:09:54;34.50;;;24.33;;
22768;SDS011;13001;51.968;5.918;2024-03-08T05:12:22;38.90;;;24.87;;
22768;SDS011;13001;51.968;5.918;2024-03-08T05:14:50;36.03;;;23.87;;
22768;SDS011;13001;51.968;5.918;2024-03-08T05:17:17;38.13;;;24.17;;
22768;SDS011;13001;51.968;5.918;2024-03-08T05:19:46;33.85;;;24.00;;
22768;SDS011;13001;51.968;5.918;2024-03-08T05:22:14;35.03;;;23.00;;
22768;SDS011;13001;51.968;5.918;2024-03-08T05:24:41;36.23;;;23.87;;
22768;SDS011;13001;51.968;5.918;2024-03-08T05:27:09;38.20;;;24.20;;
22768;SDS011;13001;51.968;5.918;2024-03-08T05:29:36;37.83;;;24.60;;
22768;SDS011;13001;51.968;5.918;2024-03-08T05:32:04;34.63;;;24.05;;
22768;SDS011;13001;51.968;5.918;2024-03-08T05:34:33;36.75;;;24.12;;
22768;SDS011;13001;51.968;5.918;2024-03-08T05:37:00;35.30;;;23.98;;
22768;SDS011;13001;51.968;5.918;2024-03-08T05:39:28;33.45;;;23.75;;
22768;SDS011;13001;51.968;5.918;2024-03-08T05:41:58;35.25;;;24.82;;
22768;SDS011;13001;51.968;5.918;2024-03-08T05:44:25;38.55;;;25.72;;
22768;SDS011;13001;51.968;5.918;2024-03-08T05:46:54;35.40;;;25.77;;
22768;SDS011;13001;51.968;5.918;2024-03-08T05:49:22;37.85;;;25.25;;
22768;SDS011;13001;51.968;5.918;2024-03-08T05:51:50;38.53;;;25.92;;
22768;SDS011;13001;51.968;5.918;2024-03-08T05:54:19;39.23;;;26.40;;
22768;SDS011;13001;51.968;5.918;2024-03-08T05:56:49;36.45;;;25.10;;
22768;SDS011;13001;51.968;5.918;2024-03-08T05:59:18;39.43;;;26.97;;
22768;SDS011;13001;51.968;5.918;2024-03-08T06:01:48;38.23;;;25.95;;
22768;SDS011;13001;51.968;5.918;2024-03-08T06:04:17;36.47;;;26.07;;
22768;SDS011;13001;51.968;5.918;2024-03-08T06:06:46;36.70;;;26.73;;
22768;SDS011;13001;51.968;5.918;2024-03-08T06:09:13;37.23;;;27.25;;
22768;SDS011;13001;51.968;5.918;2024-03-08T06:11:42;36.45;;;24.23;;
22768;SDS011;13001;51.968;5.918;2024-03-08T06:14:10;40.43;;;26.85;;
22768;SDS011;13001;51.968;5.918;2024-03-08T06:16:37;44.10;;;27.98;;
22768;SDS011;13001;51.968;5.918;2024-03-08T06:19:05;39.53;;;26.73;;
22768;SDS011;13001;51.968;5.918;2024-03-08T06:21:33;36.23;;;25.95;;
22768;SDS011;13001;51.968;5.918;2024-03-08T06:24:02;39.80;;;26.75;;
22768;SDS011;13001;51.968;5.918;2024-03-08T06:26:30;38.15;;;26.23;;
22768;SDS011;13001;51.968;5.918;2024-03-08T06:28:58;37.30;;;26.00;;
22768;SDS011;13001;51.968;5.918;2024-03-08T06:31:26;35.30;;;25.50;;
22768;SDS011;13001;51.968;5.918;2024-03-08T06:33:53;34.05;;;23.85;;
22768;SDS011;13001;51.968;5.918;2024-03-08T06:36:21;33.60;;;24.50;;
22768;SDS011;13001;51.968;5.918;2024-03-08T06:38:48;38.50;;;24.92;;
22768;SDS011;13001;51.968;5.918;2024-03-08T06:41:16;37.75;;;24.25;;
22768;SDS011;13001;51.968;5.918;2024-03-08T06:43:45;33.47;;;23.13;;
22768;SDS011;13001;51.968;5.918;2024-03-08T06:46:15;32.80;;;22.58;;
22768;SDS011;13001;51.968;5.918;2024-03-08T06:48:43;37.05;;;23.50;;
22768;SDS011;13001;51.968;5.918;2024-03-08T06:51:12;33.15;;;22.40;;
22768;SDS011;13001;51.968;5.918;2024-03-08T06:53:40;31.27;;;21.70;;
22768;SDS011;13001;51.968;5.918;2024-03-08T06:56:08;32.17;;;22.07;;
22768;SDS011;13001;51.968;5.918;2024-03-08T06:58:35;34.70;;;22.93;;
22768;SDS011;13001;51.968;5.918;2024-03-08T07:01:03;31.73;;;21.87;;
22768;SDS011;13001;51.968;5.918;2024-03-08T07:03:35;31.40;;;21.55;;
22768;SDS011;13001;51.968;5.918;2024-03-08T07:06:04;33.08;;;21.27;;
22768;SDS011;13001;51.968;5.918;2024-03-08T07:08:33;32.50;;;21.27;;
22768;SDS011;13001;51.968;5.918;2024-03-08T07:11:00;30.17;;;21.23;;
22768;SDS011;13001;51.968;5.918;2024-03-08T07:13:31;30.82;;;21.15;;
22768;SDS011;13001;51.968;5.918;2024-03-08T07:15:59;29.72;;;20.77;;
22768;SDS011;13001;51.968;5.918;2024-03-08T07:18:27;26.70;;;20.05;;
22768;SDS011;13001;51.968;5.918;2024-03-08T07:20:55;33.33;;;21.35;;
22768;SDS011;13001;51.968;5.918;2024-03-08T07:23:23;27.57;;;21.07;;
22768;SDS011;13001;51.968;5.918;2024-03-08T07:26:09;31.30;;;21.40;;
22768;SDS011;13001;51.968;5.918;2024-03-08T07:28:36;34.23;;;23.02;;
22768;SDS011;13001;51.968;5.918;2024-03-08T07:31:04;33.83;;;23.30;;
22768;SDS011;13001;51.968;5.918;2024-03-08T07:33:35;35.15;;;24.05;;
22768;SDS011;13001;51.968;5.918;2024-03-08T07:36:04;31.37;;;22.20;;
22768;SDS011;13001;51.968;5.918;2024-03-08T07:38:32;32.73;;;22.27;;
22768;SDS011;13001;51.968;5.918;2024-03-08T07:41:00;31.35;;;21.37;;
22768;SDS011;13001;51.968;5.918;2024-03-08T07:43:27;32.00;;;20.70;;
22768;SDS011;13001;51.968;5.918;2024-03-08T07:45:55;27.20;;;19.53;;
22768;SDS011;13001;51.968;5.918;2024-03-08T07:48:22;29.65;;;20.05;;
22768;SDS011;13001;51.968;5.918;2024-03-08T07:50:50;29.92;;;20.37;;
22768;SDS011;13001;51.968;5.918;2024-03-08T07:53:18;30.03;;;19.70;;
22768;SDS011;13001;51.968;5.918;2024-03-08T07:55:46;29.48;;;19.87;;
22768;SDS011;13001;51.968;5.918;2024-03-08T07:58:13;27.67;;;20.77;;
22768;SDS011;13001;51.968;5.918;2024-03-08T08:00:41;33.98;;;20.82;;
22768;SDS011;13001;51.968;5.918;2024-03-08T08:03:08;32.33;;;20.43;;
22768;SDS011;13001;51.968;5.918;2024-03-08T08:05:36;29.98;;;19.60;;
22768;SDS011;13001;51.968;5.918;2024-03-08T08:08:05;29.40;;;19.60;;
22768;SDS011;13001;51.968;5.918;2024-03-08T08:10:36;30.23;;;20.00;;
22768;SDS011;13001;51.968;5.918;2024-03-08T08:13:04;30.37;;;19.25;;
22768;SDS011;13001;51.968;5.918;2024-03-08T08:15:31;28.75;;;18.45;;
22768;SDS011;13001;51.968;5.918;2024-03-08T08:18:02;26.15;;;18.77;;
22768;SDS011;13001;51.968;5.918;2024-03-08T08:20:32;29.07;;;19.37;;
22768;SDS011;13001;51.968;5.918;2024-03-08T08:23:00;28.10;;;19.70;;
22768;SDS011;13001;51.968;5.918;2024-03-08T08:25:28;29.63;;;19.35;;
22768;SDS011;13001;51.968;5.918;2024-03-08T08:27:55;29.37;;;19.60;;
22768;SDS011;13001;51.968;5.918;2024-03-08T08:30:23;30.25;;;19.45;;
22768;SDS011;13001;51.968;5.918;2024-03-08T08:32:50;28.80;;;19.20;;
22768;SDS011;13001;51.968;5.918;2024-03-08T08:35:18;28.60;;;19.07;;
22768;SDS011;13001;51.968;5.918;2024-03-08T08:37:46;29.42;;;19.65;;
22768;SDS011;13001;51.968;5.918;2024-03-08T08:40:13;25.63;;;18.20;;
22768;SDS011;13001;51.968;5.918;2024-03-08T08:42:43;27.43;;;17.53;;
22768;SDS011;13001;51.968;5.918;2024-03-08T08:45:11;26.63;;;18.40;;
22768;SDS011;13001;51.968;5.918;2024-03-08T08:47:40;26.03;;;18.17;;
22768;SDS011;13001;51.968;5.918;2024-03-08T08:50:08;26.33;;;17.67;;
22768;SDS011;13001;51.968;5.918;2024-03-08T08:52:37;29.07;;;18.30;;
22768;SDS011;13001;51.968;5.918;2024-03-08T08:55:06;23.53;;;18.27;;
22768;SDS011;13001;51.968;5.918;2024-03-08T08:57:33;24.03;;;17.17;;
22768;SDS011;13001;51.968;5.918;2024-03-08T09:00:01;24.20;;;18.20;;
22768;SDS011;13001;51.968;5.918;2024-03-08T09:02:39;30.40;;;17.53;;
22768;SDS011;13001;51.968;5.918;2024-03-08T09:05:06;28.10;;;17.97;;
22768;SDS011;13001;51.968;5.918;2024-03-08T09:07:34;28.27;;;18.00;;
22768;SDS011;13001;51.968;5.918;2024-03-08T09:10:02;29.17;;;18.03;;
22768;SDS011;13001;51.968;5.918;2024-03-08T09:12:32;25.67;;;15.60;;
22768;SDS011;13001;51.968;5.918;2024-03-08T09:15:00;25.40;;;18.50;;
22768;SDS011;13001;51.968;5.918;2024-03-08T09:17:28;29.30;;;18.17;;
22768;SDS011;13001;51.968;5.918;2024-03-08T09:19:57;32.43;;;19.77;;
22768;SDS011;13001;51.968;5.918;2024-03-08T09:22:25;34.13;;;20.87;;
22768;SDS011;13001;51.968;5.918;2024-03-08T09:24:52;28.77;;;19.37;;
22768;SDS011;13001;51.968;5.918;2024-03-08T09:27:20;27.50;;;18.37;;
22768;SDS011;13001;51.968;5.918;2024-03-08T09:29:47;27.03;;;19.17;;
22768;SDS011;13001;51.968;5.918;2024-03-08T09:32:15;25.80;;;19.10;;
22768;SDS011;13001;51.968;5.918;2024-03-08T09:34:43;34.13;;;19.37;;
22768;SDS011;13001;51.968;5.918;2024-03-08T09:37:10;29.13;;;19.93;;
22768;SDS011;13001;51.968;5.918;2024-03-08T09:39:38;29.33;;;19.43;;
22768;SDS011;13001;51.968;5.918;2024-03-08T09:42:06;27.70;;;18.63;;
22768;SDS011;13001;51.968;5.918;2024-03-08T09:44:33;25.53;;;18.83;;
22768;SDS011;13001;51.968;5.918;2024-03-08T09:47:03;30.60;;;19.23;;
22768;SDS011;13001;51.968;5.918;2024-03-08T09:54:26;29.57;;;18.83;;
22768;SDS011;13001;51.968;5.918;2024-03-08T09:56:54;31.67;;;19.10;;
22768;SDS011;13001;51.968;5.918;2024-03-08T09:59:23;33.10;;;20.07;;
22768;SDS011;13001;51.968;5.918;2024-03-08T10:01:57;30.10;;;19.20;;
22768;SDS011;13001;51.968;5.918;2024-03-08T10:04:31;32.20;;;19.90;;
22768;SDS011;13001;51.968;5.918;2024-03-08T10:06:59;30.57;;;19.37;;
22768;SDS011;13001;51.968;5.918;2024-03-08T10:09:29;28.13;;;17.50;;
22768;SDS011;13001;51.968;5.918;2024-03-08T10:12:01;29.50;;;18.57;;
22768;SDS011;13001;51.968;5.918;2024-03-08T10:14:30;27.67;;;18.70;;
22768;SDS011;13001;51.968;5.918;2024-03-08T10:16:57;29.40;;;19.13;;
22768;SDS011;13001;51.968;5.918;2024-03-08T10:19:27;29.37;;;19.23;;
22768;SDS011;13001;51.968;5.918;2024-03-08T10:21:55;29.40;;;18.53;;
22768;SDS011;13001;51.968;5.918;2024-03-08T10:24:25;29.83;;;19.57;;
22768;SDS011;13001;51.968;5.918;2024-03-08T10:26:53;28.90;;;18.90;;
22768;SDS011;13001;51.968;5.918;2024-03-08T10:29:30;27.73;;;18.67;;
22768;SDS011;13001;51.968;5.918;2024-03-08T10:31:58;29.60;;;19.07;;
22768;SDS011;13001;51.968;5.918;2024-03-08T10:34:26;38.67;;;18.93;;
22768;SDS011;13001;51.968;5.918;2024-03-08T10:36:55;26.77;;;17.97;;
22768;SDS011;13001;51.968;5.918;2024-03-08T10:39:26;26.03;;;17.60;;
22768;SDS011;13001;51.968;5.918;2024-03-08T10:41:57;32.27;;;18.03;;
22768;SDS011;13001;51.968;5.918;2024-03-08T10:44:32;24.80;;;17.63;;
22768;SDS011;13001;51.968;5.918;2024-03-08T10:47:19;27.20;;;18.10;;
22768;SDS011;13001;51.968;5.918;2024-03-08T10:49:47;27.27;;;18.40;;
22768;SDS011;13001;51.968;5.918;2024-03-08T10:52:12;25.10;;;18.40;;
22768;SDS011;13001;51.968;5.918;2024-03-08T10:54:41;33.27;;;19.77;;
22768;SDS011;13001;51.968;5.918;2024-03-08T10:57:10;29.13;;;17.63;;
22768;SDS011;13001;51.968;5.918;2024-03-08T10:59:41;26.80;;;16.93;;
22768;SDS011;13001;51.968;5.918;2024-03-08T11:02:15;30.60;;;17.07;;
22768;SDS011;13001;51.968;5.918;2024-03-08T11:04:38;25.33;;;16.27;;
22768;SDS011;13001;51.968;5.918;2024-03-08T11:07:08;24.00;;;16.83;;
22768;SDS011;13001;51.968;5.918;2024-03-08T11:09:38;23.27;;;16.13;;
22768;SDS011;13001;51.968;5.918;2024-03-08T11:12:23;23.53;;;15.70;;
22768;SDS011;13001;51.968;5.918;2024-03-08T11:14:53;23.70;;;15.57;;
22768;SDS011;13001;51.968;5.918;2024-03-08T11:17:25;25.50;;;16.57;;
22768;SDS011;13001;51.968;5.918;2024-03-08T11:19:59;21.10;;;14.70;;
22768;SDS011;13001;51.968;5.918;2024-03-08T11:22:29;24.43;;;15.73;;
22768;SDS011;13001;51.968;5.918;2024-03-08T11:25:08;20.83;;;14.60;;
22768;SDS011;13001;51.968;5.918;2024-03-08T11:27:36;19.87;;;15.20;;
22768;SDS011;13001;51.968;5.918;2024-03-08T11:30:05;28.83;;;16.37;;
22768;SDS011;13001;51.968;5.918;2024-03-08T11:32:43;25.60;;;15.40;;
22768;SDS011;13001;51.968;5.918;2024-03-08T11:35:07;23.50;;;15.27;;
22768;SDS011;13001;51.968;5.918;2024-03-08T11:37:38;20.97;;;13.83;;
22768;SDS011;13001;51.968;5.918;2024-03-08T11:40:11;25.37;;;15.33;;
22768;SDS011;13001;51.968;5.918;2024-03-08T11:42:38;21.17;;;14.47;;
22768;SDS011;13001;51.968;5.918;2024-03-08T11:45:12;19.43;;;12.83;;
22768;SDS011;13001;51.968;5.918;2024-03-08T11:47:43;22.43;;;15.83;;
22768;SDS011;13001;51.968;5.918;2024-03-08T11:50:14;23.20;;;15.47;;
22768;SDS011;13001;51.968;5.918;2024-03-08T11:52:42;20.90;;;12.70;;
22768;SDS011;13001;51.968;5.918;2024-03-08T11:55:12;18.27;;;12.90;;
22768;SDS011;13001;51.968;5.918;2024-03-08T11:57:40;21.67;;;12.93;;
22768;SDS011;13001;51.968;5.918;2024-03-08T12:00:14;19.17;;;13.43;;
22768;SDS011;13001;51.968;5.918;2024-03-08T12:03:00;24.80;;;14.53;;
22768;SDS011;13001;51.968;5.918;2024-03-08T12:05:32;19.17;;;12.77;;
22768;SDS011;13001;51.968;5.918;2024-03-08T12:08:02;21.03;;;14.23;;
22768;SDS011;13001;51.968;5.918;2024-03-08T12:10:31;20.37;;;13.60;;
22768;SDS011;13001;51.968;5.918;2024-03-08T12:13:00;21.17;;;14.80;;
22768;SDS011;13001;51.968;5.918;2024-03-08T12:15:31;23.37;;;15.40;;
22768;SDS011;13001;51.968;5.918;2024-03-08T12:17:59;21.50;;;14.53;;
22768;SDS011;13001;51.968;5.918;2024-03-08T12:20:29;22.17;;;14.50;;
22768;SDS011;13001;51.968;5.918;2024-03-08T12:22:57;22.63;;;14.30;;
22768;SDS011;13001;51.968;5.918;2024-03-08T12:25:27;19.97;;;13.57;;
22768;SDS011;13001;51.968;5.918;2024-03-08T12:28:10;21.53;;;14.00;;
22768;SDS011;13001;51.968;5.918;2024-03-08T12:30:46;24.93;;;14.67;;
22768;SDS011;13001;51.968;5.918;2024-03-08T12:33:19;22.77;;;13.20;;
22768;SDS011;13001;51.968;5.918;2024-03-08T12:35:51;24.60;;;15.63;;
22768;SDS011;13001;51.968;5.918;2024-03-08T12:38:20;21.93;;;15.03;;
22768;SDS011;13001;51.968;5.918;2024-03-08T12:40:55;26.90;;;15.60;;
22768;SDS011;13001;51.968;5.918;2024-03-08T12:43:24;22.47;;;15.00;;
22768;SDS011;13001;51.968;5.918;2024-03-08T12:45:51;24.23;;;15.27;;
22768;SDS011;13001;51.968;5.918;2024-03-08T12:48:20;23.57;;;15.47;;
22768;SDS011;13001;51.968;5.918;2024-03-08T12:50:48;19.97;;;15.47;;
22768;SDS011;13001;51.968;5.918;2024-03-08T12:53:17;23.27;;;15.53;;
22768;SDS011;13001;51.968;5.918;2024-03-08T12:55:45;21.80;;;15.73;;
22768;SDS011;13001;51.968;5.918;2024-03-08T12:58:12;24.17;;;16.50;;
22768;SDS011;13001;51.968;5.918;2024-03-08T13:00:41;21.57;;;13.20;;
22768;SDS011;13001;51.968;5.918;2024-03-08T13:03:09;24.57;;;15.90;;
22768;SDS011;13001;51.968;5.918;2024-03-08T13:05:37;22.67;;;14.63;;
22768;SDS011;13001;51.968;5.918;2024-03-08T13:08:08;21.53;;;13.87;;
22768;SDS011;13001;51.968;5.918;2024-03-08T13:10:43;22.23;;;14.77;;
22768;SDS011;13001;51.968;5.918;2024-03-08T13:13:10;25.50;;;15.63;;
22768;SDS011;13001;51.968;5.918;2024-03-08T13:15:41;23.77;;;13.93;;
22768;SDS011;13001;51.968;5.918;2024-03-08T13:18:09;24.97;;;15.63;;
22768;SDS011;13001;51.968;5.918;2024-03-08T13:20:37;24.97;;;15.93;;
22768;SDS011;13001;51.968;5.918;2024-03-08T13:23:04;25.43;;;16.50;;
22768;SDS011;13001;51.968;5.918;2024-03-08T13:25:34;20.07;;;12.70;;
22768;SDS011;13001;51.968;5.918;2024-03-08T13:28:03;22.70;;;16.43;;
22768;SDS011;13001;51.968;5.918;2024-03-08T13:30:32;23.47;;;16.13;;
22768;SDS011;13001;51.968;5.918;2024-03-08T13:33:01;28.87;;;16.33;;
22768;SDS011;13001;51.968;5.918;2024-03-08T13:35:30;24.10;;;15.77;;
22768;SDS011;13001;51.968;5.918;2024-03-08T13:38:00;26.03;;;15.40;;
22768;SDS011;13001;51.968;5.918;2024-03-08T13:40:40;26.80;;;16.23;;
22768;SDS011;13001;51.968;5.918;2024-03-08T13:43:09;23.70;;;16.83;;
22768;SDS011;13001;51.968;5.918;2024-03-08T13:45:37;20.93;;;14.27;;
22768;SDS011;13001;51.968;5.918;2024-03-08T13:48:04;24.50;;;15.93;;
22768;SDS011;13001;51.968;5.918;2024-03-08T13:50:32;23.93;;;15.90;;
22768;SDS011;13001;51.968;5.918;2024-03-08T13:53:00;23.23;;;16.33;;
22768;SDS011;13001;51.968;5.918;2024-03-08T13:55:29;27.20;;;17.10;;
22768;SDS011;13001;51.968;5.918;2024-03-08T13:57:59;22.87;;;15.40;;
22768;SDS011;13001;51.968;5.918;2024-03-08T14:00:26;26.40;;;16.07;;
22768;SDS011;13001;51.968;5.918;2024-03-08T14:02:56;24.63;;;15.60;;
22768;SDS011;13001;51.968;5.918;2024-03-08T14:05:24;24.13;;;15.50;;
22768;SDS011;13001;51.968;5.918;2024-03-08T14:07:52;23.83;;;14.70;;
22768;SDS011;13001;51.968;5.918;2024-03-08T14:10:21;23.13;;;16.33;;
22768;SDS011;13001;51.968;5.918;2024-03-08T14:12:49;25.73;;;16.87;;
22768;SDS011;13001;51.968;5.918;2024-03-08T14:15:17;23.47;;;15.27;;
22768;SDS011;13001;51.968;5.918;2024-03-08T14:17:51;27.00;;;15.53;;
22768;SDS011;13001;51.968;5.918;2024-03-08T14:20:21;23.43;;;15.53;;
22768;SDS011;13001;51.968;5.918;2024-03-08T14:22:54;23.90;;;14.97;;
22768;SDS011;13001;51.968;5.918;2024-03-08T14:25:22;24.40;;;15.77;;
22768;SDS011;13001;51.968;5.918;2024-03-08T14:27:51;23.87;;;15.57;;
22768;SDS011;13001;51.968;5.918;2024-03-08T14:30:22;24.53;;;16.67;;
22768;SDS011;13001;51.968;5.918;2024-03-08T14:32:58;24.30;;;16.00;;
22768;SDS011;13001;51.968;5.918;2024-03-08T14:35:26;25.87;;;16.50;;
22768;SDS011;13001;51.968;5.918;2024-03-08T14:37:55;21.77;;;15.57;;